Time;durP1;ratioP1;P1;durP2;ratioP2;P2;SDS_P1;SDS_P2;PMS_P1;PMS_P2;Temp;Humidity;BMP_temperature;BMP_pressure;BME280_temperature;BME280_humidity;BME280_pressure;Samples;Min_cycle;Max_cycle;Signal;HPM_P1;HPM_P2
2022/04/04 00:00:45;;;;;;;5.95;4.75;;;3.30;99.90;;;;;;5048254;28;20051;-73
2022/04/04 00:03:11;;;;;;;7.95;4.30;;;3.30;99.90;;;;;;5047846;28;20433;-73
2022/04/04 00:05:38;;;;;;;6.35;4.43;;;3.30;99.90;;;;;;5026206;28;20367;-73
2022/04/04 00:08:04;;;;;;;7.03;5.00;;;3.30;99.90;;;;;;5049328;28;20047;-73
2022/04/04 00:10:30;;;;;;;7.95;4.88;;;3.20;99.90;;;;;;5031785;28;20441;-73
2022/04/04 00:12:56;;;;;;;7.05;4.70;;;3.20;99.90;;;;;;5048152;28;20049;-73
2022/04/04 00:15:22;;;;;;;8.52;5.15;;;3.30;99.90;;;;;;5049440;28;20133;-73
2022/04/04 00:17:47;;;;;;;11.35;5.28;;;3.30;99.90;;;;;;5029787;28;20059;-73
2022/04/04 00:20:14;;;;;;;9.82;4.78;;;3.30;99.90;;;;;;5046949;28;20044;-73
2022/04/04 00:22:40;;;;;;;5.65;4.30;;;3.30;99.90;;;;;;5049097;28;20119;-73
2022/04/04 00:25:06;;;;;;;7.15;4.82;;;3.30;99.90;;;;;;5046099;28;20037;-73
2022/04/04 00:27:31;;;;;;;6.47;4.97;;;3.20;99.90;;;;;;5046744;28;20037;-73
2022/04/04 00:29:57;;;;;;;8.88;4.82;;;3.30;99.90;;;;;;5047081;28;20051;-73
2022/04/04 00:32:22;;;;;;;7.35;5.05;;;3.20;99.90;;;;;;5048173;28;20067;-73
2022/04/04 00:34:48;;;;;;;7.57;5.00;;;3.20;99.90;;;;;;5033066;28;20056;-73
2022/04/04 00:37:14;;;;;;;6.25;4.97;;;3.20;99.90;;;;;;5047745;28;20508;-73
2022/04/04 00:39:40;;;;;;;10.13;5.13;;;3.20;99.90;;;;;;5033015;28;20489;-73
2022/04/04 00:42:06;;;;;;;5.95;4.47;;;3.20;99.90;;;;;;5047738;28;20109;-73
2022/04/04 00:44:33;;;;;;;8.93;5.25;;;3.20;99.90;;;;;;5047283;28;20060;-73
2022/04/04 00:46:59;;;;;;;7.65;4.63;;;3.20;99.90;;;;;;5047365;28;20032;-73
2022/04/04 00:49:25;;;;;;;11.40;4.90;;;3.20;99.90;;;;;;5048473;28;20036;-73
2022/04/04 00:51:51;;;;;;;6.40;5.00;;;3.20;99.90;;;;;;5047706;28;20127;-73
2022/04/04 00:54:17;;;;;;;9.30;4.93;;;3.20;99.90;;;;;;5046721;28;20556;-73
2022/04/04 00:56:43;;;;;;;6.72;5.22;;;3.20;99.90;;;;;;5046727;28;20041;-74
2022/04/04 00:59:13;;;;;;;10.30;5.00;;;3.30;99.90;;;;;;5047142;28;20059;-73
2022/04/04 01:01:40;;;;;;;6.80;4.90;;;3.30;99.90;;;;;;5047951;28;20036;-73
2022/04/04 01:04:08;;;;;;;10.25;5.65;;;3.40;99.90;;;;;;5046633;28;20036;-73
2022/04/04 01:06:35;;;;;;;9.57;6.43;;;3.40;99.90;;;;;;5031679;28;20040;-73
2022/04/04 01:09:03;;;;;;;9.50;6.18;;;3.50;99.90;;;;;;5047697;28;20056;-73
2022/04/04 01:11:29;;;;;;;12.32;7.07;;;3.50;99.90;;;;;;5044649;28;20036;-73
2022/04/04 01:13:55;;;;;;;10.73;6.60;;;3.60;99.90;;;;;;5047205;28;20555;-73
2022/04/04 01:16:21;;;;;;;13.45;6.88;;;3.60;99.90;;;;;;5046805;28;20066;-73
2022/04/04 01:18:47;;;;;;;10.70;7.38;;;3.60;99.90;;;;;;5030224;28;20041;-73
2022/04/04 01:21:17;;;;;;;10.60;8.18;;;3.70;99.90;;;;;;5046336;28;20409;-73
2022/04/04 01:23:43;;;;;;;10.77;7.72;;;3.70;99.90;;;;;;5046100;28;20048;-73
2022/04/04 01:26:10;;;;;;;10.65;9.20;;;3.70;99.90;;;;;;5043338;28;20092;-73
2022/04/04 01:28:37;;;;;;;11.68;9.15;;;3.80;99.90;;;;;;5041591;28;20040;-73
2022/04/04 01:31:04;;;;;;;11.68;9.15;;;3.80;99.90;;;;;;5044114;28;20051;-74
2022/04/04 01:33:30;;;;;;;11.15;9.50;;;3.80;99.90;;;;;;5046936;28;20045;-74
2022/04/04 01:36:00;;;;;;;13.43;9.10;;;3.80;99.90;;;;;;5046532;28;20045;-73
2022/04/04 01:38:26;;;;;;;12.35;9.63;;;3.80;99.90;;;;;;5047295;28;20037;-73
2022/04/04 01:40:52;;;;;;;12.98;9.30;;;3.90;99.90;;;;;;5028125;28;20041;-73
2022/04/04 01:43:18;;;;;;;10.98;9.73;;;3.90;99.90;;;;;;5046017;28;20075;-73
2022/04/04 01:48:34;;;;;;;13.25;10.30;;;4.00;99.90;;;;;;5048221;28;20403;-73
2022/04/04 01:51:00;;;;;;;13.23;10.00;;;4.00;99.90;;;;;;5044578;28;20044;-73
2022/04/04 01:53:25;;;;;;;13.60;9.77;;;4.00;99.90;;;;;;5047296;28;20806;-73
2022/04/04 01:55:54;;;;;;;11.75;10.27;;;4.00;99.90;;;;;;5047027;28;20037;-73
2022/04/04 01:58:19;;;;;;;14.43;9.75;;;4.10;99.90;;;;;;5046848;28;20062;-73
2022/04/04 02:00:45;;;;;;;12.27;9.75;;;4.10;99.90;;;;;;5045469;28;20055;-73
2022/04/04 02:03:11;;;;;;;15.38;9.60;;;4.20;99.90;;;;;;5046910;28;20029;-73
2022/04/04 02:05:37;;;;;;;14.85;9.90;;;4.20;99.90;;;;;;5042996;28;20040;-73
2022/04/04 02:08:03;;;;;;;13.40;10.02;;;4.30;99.90;;;;;;5045722;28;20048;-73
2022/04/04 02:10:29;;;;;;;16.40;11.43;;;4.30;99.90;;;;;;5045074;28;21857;-73
2022/04/04 02:12:55;;;;;;;14.05;10.02;;;4.40;99.90;;;;;;5062903;28;20033;-73
2022/04/04 02:15:20;;;;;;;12.95;10.35;;;4.40;99.90;;;;;;5046861;28;20122;-73
2022/04/04 02:17:46;;;;;;;14.95;11.13;;;4.40;99.90;;;;;;5047025;28;20086;-73
2022/04/04 02:20:12;;;;;;;18.88;11.90;;;4.50;99.90;;;;;;5024412;28;20049;-73
2022/04/04 02:22:37;;;;;;;15.50;10.90;;;4.60;99.90;;;;;;5044493;28;20423;-73
2022/04/04 02:25:04;;;;;;;16.67;11.80;;;4.60;99.90;;;;;;5039499;28;20045;-73
2022/04/04 02:27:30;;;;;;;15.68;11.20;;;4.60;99.90;;;;;;5046363;28;20052;-73
2022/04/04 02:29:57;;;;;;;16.00;11.25;;;4.60;99.90;;;;;;5044470;28;20037;-73
2022/04/04 02:32:23;;;;;;;17.63;12.60;;;4.60;99.90;;;;;;5046689;28;20048;-73
2022/04/04 02:34:49;;;;;;;20.50;12.65;;;4.70;99.90;;;;;;5028491;28;20033;-73
2022/04/04 02:37:16;;;;;;;16.80;11.75;;;4.70;99.90;;;;;;5028219;28;20029;-73
2022/04/04 02:39:42;;;;;;;16.25;11.35;;;4.60;99.90;;;;;;5028413;28;20128;-73
2022/04/04 02:42:08;;;;;;;18.08;12.70;;;4.70;99.90;;;;;;5045896;28;20600;-73
2022/04/04 02:44:34;;;;;;;16.23;11.90;;;4.70;99.90;;;;;;5025868;28;20047;-73
2022/04/04 02:47:00;;;;;;;15.88;12.20;;;4.80;99.90;;;;;;5044224;28;20037;-73
2022/04/04 02:49:28;;;;;;;18.48;12.65;;;4.90;99.90;;;;;;5011585;28;20488;-73
2022/04/04 02:51:55;;;;;;;15.32;11.88;;;4.80;99.90;;;;;;5044892;28;20045;-73
2022/04/04 02:54:21;;;;;;;18.05;12.75;;;4.90;99.90;;;;;;5028353;28;20063;-73
2022/04/04 02:56:46;;;;;;;22.40;13.25;;;4.90;99.90;;;;;;5043740;28;20440;-73
2022/04/04 02:59:12;;;;;;;19.67;12.07;;;4.90;99.90;;;;;;5045422;28;20033;-73
2022/04/04 03:01:38;;;;;;;16.83;12.63;;;5.00;99.90;;;;;;5045448;28;20395;-73
2022/04/04 03:04:04;;;;;;;17.50;12.70;;;5.00;99.90;;;;;;5042637;28;20041;-73
2022/04/04 03:06:30;;;;;;;17.23;11.50;;;5.00;99.90;;;;;;5046591;28;20688;-73
2022/04/04 03:08:56;;;;;;;17.63;11.63;;;5.00;99.90;;;;;;5046170;28;20495;-73
2022/04/04 03:11:22;;;;;;;17.40;11.73;;;5.00;99.90;;;;;;5045159;28;20087;-73
2022/04/04 03:13:48;;;;;;;19.27;11.88;;;5.10;99.90;;;;;;5046307;28;21985;-73
2022/04/04 03:16:14;;;;;;;17.25;12.02;;;5.20;99.90;;;;;;5045896;28;20072;-73
2022/04/04 03:18:40;;;;;;;16.08;10.55;;;5.20;99.90;;;;;;5045184;28;20041;-73
2022/04/04 03:21:07;;;;;;;16.88;12.20;;;5.20;99.90;;;;;;5044915;28;20045;-73
2022/04/04 03:23:34;;;;;;;21.13;12.23;;;5.20;99.90;;;;;;5045376;28;20377;-73
2022/04/04 03:26:01;;;;;;;19.90;12.00;;;5.20;99.90;;;;;;5029708;28;20040;-73
2022/04/04 03:28:26;;;;;;;18.13;12.77;;;5.30;99.90;;;;;;5046577;28;20044;-73
2022/04/04 03:30:53;;;;;;;15.48;12.15;;;5.30;99.90;;;;;;5045811;28;20518;-73
2022/04/04 03:33:19;;;;;;;16.50;10.27;;;5.40;99.90;;;;;;5044687;28;20036;-73
2022/04/04 03:35:45;;;;;;;14.52;9.98;;;5.40;99.90;;;;;;5044675;28;20059;-73
2022/04/04 03:38:11;;;;;;;15.32;10.65;;;5.50;99.90;;;;;;5042097;28;20045;-73
2022/04/04 03:40:37;;;;;;;17.45;10.95;;;5.50;99.90;;;;;;5044297;28;20146;-73
2022/04/04 03:43:04;;;;;;;14.90;11.52;;;5.60;99.90;;;;;;5043459;28;20789;-73
2022/04/04 03:45:30;;;;;;;14.50;10.60;;;5.50;99.90;;;;;;5044616;28;20047;-73
2022/04/04 03:47:57;;;;;;;13.98;11.18;;;5.60;99.90;;;;;;5045928;28;20125;-73
2022/04/04 03:50:25;;;;;;;19.30;10.52;;;5.60;99.90;;;;;;5044998;28;20033;-74
2022/04/04 03:52:52;;;;;;;16.52;11.48;;;5.60;99.90;;;;;;5045470;28;20091;-73
2022/04/04 03:55:20;;;;;;;12.75;10.07;;;5.50;99.90;;;;;;5044444;28;20047;-73
2022/04/04 03:57:46;;;;;;;14.77;10.23;;;5.60;99.90;;;;;;5045640;28;20048;-73
2022/04/04 04:00:12;;;;;;;14.15;10.50;;;5.60;99.90;;;;;;5045080;28;20068;-74
2022/04/04 04:02:38;;;;;;;14.90;10.93;;;5.60;99.90;;;;;;5025100;28;20041;-73
2022/04/04 04:05:05;;;;;;;12.55;10.43;;;5.70;99.90;;;;;;5046285;28;20161;-73
2022/04/04 04:07:30;;;;;;;16.02;9.52;;;5.70;99.90;;;;;;5045812;28;20167;-73
2022/04/04 04:09:56;;;;;;;18.05;10.82;;;5.60;99.90;;;;;;5043962;28;20048;-73
2022/04/04 04:12:23;;;;;;;15.73;11.00;;;5.60;99.90;;;;;;5026153;28;20083;-73
2022/04/04 04:14:51;;;;;;;15.43;10.50;;;5.60;99.90;;;;;;5044298;28;20044;-74
2022/04/04 04:17:18;;;;;;;16.02;10.77;;;5.70;99.90;;;;;;5043385;28;20103;-73
2022/04/04 04:22:30;;;;;;;14.50;10.95;;;5.60;99.90;;;;;;5043273;28;20183;-73
2022/04/04 04:24:57;;;;;;;16.30;10.73;;;5.60;99.90;;;;;;5027033;28;20120;-74
2022/04/04 04:27:23;;;;;;;16.15;10.40;;;5.70;99.90;;;;;;5041415;28;20112;-73
2022/04/04 04:29:48;;;;;;;13.57;9.32;;;5.70;99.90;;;;;;5043425;28;20122;-73
2022/04/04 04:32:14;;;;;;;12.18;10.50;;;5.70;99.90;;;;;;5041819;28;20041;-73
2022/04/04 04:34:40;;;;;;;15.98;9.95;;;5.70;99.90;;;;;;5043985;28;20233;-73
2022/04/04 04:37:06;;;;;;;13.50;10.90;;;5.70;99.90;;;;;;5042483;28;20033;-73
2022/04/04 04:39:32;;;;;;;13.48;8.18;;;5.60;99.90;;;;;;5042894;28;20396;-73
2022/04/04 04:41:58;;;;;;;14.02;11.18;;;5.70;99.90;;;;;;5045283;28;20175;-73
2022/04/04 04:44:24;;;;;;;17.15;11.02;;;5.70;99.90;;;;;;5027619;28;20033;-73
2022/04/04 04:46:52;;;;;;;14.82;10.40;;;5.80;99.90;;;;;;5046651;28;20041;-73
2022/04/04 04:49:18;;;;;;;18.08;9.77;;;5.70;99.90;;;;;;5047056;28;20082;-73
2022/04/04 04:51:44;;;;;;;16.88;11.00;;;5.70;99.90;;;;;;5045300;28;20044;-73
2022/04/04 04:54:10;;;;;;;13.18;10.23;;;5.70;99.90;;;;;;5048309;28;22385;-73
2022/04/04 04:56:36;;;;;;;15.65;11.88;;;5.70;99.90;;;;;;5024499;28;20055;-73
2022/04/04 04:59:03;;;;;;;13.85;10.68;;;5.70;99.90;;;;;;5029734;28;20405;-73
2022/04/04 05:01:29;;;;;;;18.10;11.65;;;5.60;99.90;;;;;;5046375;28;20039;-73
2022/04/04 05:03:54;;;;;;;16.48;11.30;;;5.60;99.90;;;;;;5048909;28;20033;-73
2022/04/04 05:06:20;;;;;;;18.80;12.30;;;5.60;99.90;;;;;;5048070;28;20112;-73
2022/04/04 05:08:45;;;;;;;16.40;11.65;;;5.60;99.90;;;;;;5029923;28;20044;-73
2022/04/04 05:11:11;;;;;;;19.65;11.02;;;5.50;99.90;;;;;;5047150;28;20044;-73
2022/04/04 05:13:37;;;;;;;17.92;12.02;;;5.60;99.90;;;;;;5030787;28;20048;-73
2022/04/04 05:16:08;;;;;;;14.75;11.55;;;5.60;99.90;;;;;;5047904;28;20051;-73
2022/04/04 05:18:34;;;;;;;18.20;11.90;;;5.60;99.90;;;;;;5031559;28;20041;-73
2022/04/04 05:21:00;;;;;;;16.02;11.43;;;5.60;99.90;;;;;;5047045;28;20048;-73
2022/04/04 05:23:25;;;;;;;20.60;12.30;;;5.60;99.90;;;;;;5024202;28;20059;-74
2022/04/04 05:25:51;;;;;;;17.52;11.45;;;5.60;99.90;;;;;;5044277;28;20029;-73
2022/04/04 05:28:16;;;;;;;14.18;10.90;;;5.50;99.90;;;;;;5048308;28;20086;-73
2022/04/04 05:30:42;;;;;;;16.90;11.05;;;5.60;99.90;;;;;;5043908;28;20048;-73
2022/04/04 05:33:09;;;;;;;17.85;10.57;;;5.60;99.90;;;;;;5046901;28;20041;-73
2022/04/04 05:35:35;;;;;;;15.32;11.65;;;5.60;99.90;;;;;;5047867;28;20097;-75
2022/04/04 05:38:02;;;;;;;16.85;11.32;;;5.60;99.90;;;;;;5045024;28;20040;-74
2022/04/04 05:40:27;;;;;;;17.77;10.70;;;5.60;99.90;;;;;;5043733;28;20037;-73
2022/04/04 05:42:54;;;;;;;14.95;11.15;;;5.70;99.90;;;;;;5026418;28;20393;-73
2022/04/04 05:45:20;;;;;;;13.25;10.48;;;5.70;99.90;;;;;;5047663;28;20043;-73
2022/04/04 05:47:46;;;;;;;15.30;9.52;;;5.60;99.90;;;;;;5045924;28;20041;-73
2022/04/04 05:50:12;;;;;;;13.88;9.80;;;5.70;99.90;;;;;;5047219;28;20040;-73
2022/04/04 05:52:37;;;;;;;14.20;10.40;;;5.70;99.90;;;;;;5029999;28;20116;-73
2022/04/04 05:55:04;;;;;;;15.43;10.40;;;5.70;99.90;;;;;;5045737;28;20059;-73
2022/04/04 05:57:32;;;;;;;15.23;10.25;;;5.70;99.90;;;;;;5045477;28;20041;-73
2022/04/04 05:59:58;;;;;;;12.23;9.88;;;5.70;99.90;;;;;;5045992;28;20033;-73
2022/04/04 06:02:24;;;;;;;18.65;9.57;;;5.80;99.90;;;;;;5043528;28;20448;-73
2022/04/04 06:04:50;;;;;;;14.30;9.82;;;5.80;99.90;;;;;;5047064;28;20119;-73
2022/04/04 06:07:17;;;;;;;13.43;9.55;;;5.70;99.90;;;;;;5043131;28;20119;-73
2022/04/04 06:09:42;;;;;;;16.35;10.60;;;5.70;99.90;;;;;;5046449;28;20052;-73
2022/04/04 06:12:08;;;;;;;13.82;10.40;;;5.70;99.90;;;;;;5046060;28;20135;-73
2022/04/04 06:14:34;;;;;;;12.30;8.18;;;5.70;99.90;;;;;;5044674;28;20174;-73
2022/04/04 06:17:01;;;;;;;15.02;10.68;;;5.70;99.90;;;;;;5042619;28;20052;-73
2022/04/04 06:19:28;;;;;;;15.93;9.38;;;5.70;99.90;;;;;;5044858;28;20436;-73
2022/04/04 06:21:54;;;;;;;12.57;10.00;;;5.70;99.90;;;;;;5032571;28;20025;-73
2022/04/04 06:24:19;;;;;;;13.70;9.65;;;5.70;99.90;;;;;;5041058;28;20045;-73
2022/04/04 06:26:45;;;;;;;16.42;10.52;;;5.70;99.90;;;;;;5046439;28;20032;-73
2022/04/04 06:29:11;;;;;;;19.20;10.98;;;5.60;99.90;;;;;;5046873;28;20040;-73
2022/04/04 06:31:37;;;;;;;15.23;9.10;;;5.60;99.90;;;;;;5043052;28;20037;-73
2022/04/04 06:34:04;;;;;;;16.13;10.60;;;5.70;99.90;;;;;;5047023;28;20390;-73
2022/04/04 06:36:30;;;;;;;13.10;10.07;;;5.70;99.90;;;;;;5045897;28;20049;-75
2022/04/04 06:38:57;;;;;;;18.80;10.48;;;5.60;99.90;;;;;;5045601;28;20033;-74
2022/04/04 06:41:22;;;;;;;16.05;9.55;;;5.60;99.90;;;;;;5045865;28;20132;-73
2022/04/04 06:43:50;;;;;;;13.68;9.32;;;5.60;99.90;;;;;;5045399;28;20123;-73
2022/04/04 06:46:16;;;;;;;15.07;11.35;;;5.60;99.90;;;;;;5044204;28;20051;-73
2022/04/04 06:48:42;;;;;;;14.90;10.10;;;5.60;99.90;;;;;;5044521;28;20041;-73
2022/04/04 06:51:09;;;;;;;11.70;9.48;;;5.60;99.90;;;;;;5046889;28;20091;-73
2022/04/04 06:53:35;;;;;;;17.10;10.88;;;5.50;99.90;;;;;;5046337;28;20072;-74
2022/04/04 06:56:01;;;;;;;14.27;11.00;;;5.40;99.90;;;;;;5045603;28;21738;-75
2022/04/04 06:58:27;;;;;;;15.70;10.77;;;5.40;99.90;;;;;;5045232;28;20041;-74
2022/04/04 07:00:52;;;;;;;13.40;10.27;;;5.40;99.90;;;;;;5044145;28;20039;-74
2022/04/04 07:03:18;;;;;;;17.52;11.43;;;5.40;99.90;;;;;;5046067;28;20128;-74
2022/04/04 07:05:44;;;;;;;15.27;11.18;;;5.40;99.90;;;;;;5045120;28;20447;-73
2022/04/04 07:08:10;;;;;;;16.27;12.43;;;5.30;99.90;;;;;;5027205;28;20049;-74
2022/04/04 07:10:36;;;;;;;16.00;11.27;;;5.20;99.90;;;;;;5044230;28;20045;-74
2022/04/04 07:13:04;;;;;;;15.05;10.93;;;5.30;99.90;;;;;;5045539;28;20504;-74
2022/04/04 07:15:29;;;;;;;16.38;12.90;;;5.30;99.90;;;;;;5044324;28;20046;-75
2022/04/04 07:17:55;;;;;;;16.65;13.02;;;5.20;99.90;;;;;;5043137;28;20038;-74
2022/04/04 07:20:21;;;;;;;15.27;11.65;;;5.30;99.90;;;;;;5041470;28;20116;-74
2022/04/04 07:22:47;;;;;;;19.05;12.68;;;5.30;99.90;;;;;;5024800;28;20043;-74
2022/04/04 07:25:14;;;;;;;18.73;11.20;;;5.30;99.90;;;;;;5043020;28;20618;-74
2022/04/04 07:27:41;;;;;;;16.13;12.40;;;5.40;99.90;;;;;;5029662;28;20531;-75
2022/04/04 07:30:09;;;;;;;17.08;12.65;;;5.40;99.90;;;;;;5044196;28;20451;-74
2022/04/04 07:32:36;;;;;;;18.85;13.35;;;5.30;99.90;;;;;;5045172;28;20488;-74
2022/04/04 07:35:03;;;;;;;18.20;12.07;;;5.30;99.90;;;;;;5043370;28;20033;-74
2022/04/04 07:37:29;;;;;;;22.35;13.52;;;5.40;99.90;;;;;;5043490;28;20102;-74
2022/04/04 07:39:55;;;;;;;18.27;14.82;;;5.50;99.90;;;;;;5045406;28;20033;-74
2022/04/04 07:42:21;;;;;;;19.95;15.10;;;5.40;99.90;;;;;;5044969;28;20033;-75
2022/04/04 07:44:47;;;;;;;20.98;15.20;;;5.40;99.90;;;;;;5026240;28;20128;-75
2022/04/04 07:47:12;;;;;;;21.58;14.23;;;5.40;99.90;;;;;;5043638;28;20417;-74
2022/04/04 07:49:38;;;;;;;21.38;15.70;;;5.50;99.90;;;;;;5045614;28;20037;-74
2022/04/04 07:52:04;;;;;;;21.27;17.08;;;5.50;99.90;;;;;;5046311;28;20187;-74
2022/04/04 07:54:30;;;;;;;25.27;16.45;;;5.50;99.90;;;;;;5045548;28;20036;-74
2022/04/04 07:56:56;;;;;;;21.67;16.08;;;5.50;99.90;;;;;;5046969;28;20048;-75
2022/04/04 07:59:23;;;;;;;18.55;15.60;;;5.50;99.90;;;;;;5028275;28;20119;-75
2022/04/04 08:01:48;;;;;;;20.92;14.93;;;5.50;99.90;;;;;;5045675;28;20037;-74
2022/04/04 08:04:14;;;;;;;20.90;17.85;;;5.40;99.90;;;;;;5045570;28;20423;-75
2022/04/04 08:06:40;;;;;;;21.00;17.83;;;5.40;99.90;;;;;;5028840;28;20156;-74
2022/04/04 08:09:05;;;;;;;21.17;18.25;;;5.30;99.90;;;;;;5046995;28;20037;-75
2022/04/04 08:11:31;;;;;;;22.95;19.02;;;5.50;99.90;;;;;;5044227;28;20045;-74
2022/04/04 08:13:57;;;;;;;20.70;17.25;;;5.40;99.90;;;;;;5045699;28;20685;-74
2022/04/04 08:16:25;;;;;;;24.77;18.00;;;5.40;99.90;;;;;;5041133;28;20067;-74
2022/04/04 08:18:52;;;;;;;17.88;13.68;;;5.50;99.90;;;;;;5044701;28;20447;-74
2022/04/04 08:21:17;;;;;;;21.95;16.15;;;5.50;99.90;;;;;;5046621;28;20065;-74
2022/04/04 08:23:43;;;;;;;18.23;16.02;;;5.50;99.90;;;;;;5049118;28;20122;-74
2022/04/04 08:26:09;;;;;;;21.63;15.73;;;5.50;99.90;;;;;;5048580;28;20072;-74
2022/04/04 08:28:35;;;;;;;21.90;17.02;;;5.50;99.90;;;;;;5048821;28;20041;-74
2022/04/04 08:31:01;;;;;;;24.27;16.80;;;5.50;99.90;;;;;;5048641;28;20040;-74
2022/04/04 08:33:27;;;;;;;21.20;16.80;;;5.50;99.90;;;;;;5047363;28;20044;-75
2022/04/04 08:35:53;;;;;;;19.40;14.38;;;5.60;99.90;;;;;;5048234;28;20068;-74
2022/04/04 08:38:20;;;;;;;19.35;17.17;;;5.60;99.90;;;;;;5048145;28;20045;-76
2022/04/04 08:40:49;;;;;;;17.50;15.60;;;5.60;99.90;;;;;;5046602;28;20102;-75
2022/04/04 08:43:18;;;;;;;19.08;17.00;;;5.60;99.90;;;;;;5048466;28;20033;-74
2022/04/04 08:45:44;;;;;;;22.27;17.25;;;5.50;99.90;;;;;;5047745;28;20041;-75
2022/04/04 08:48:11;;;;;;;19.65;16.60;;;5.60;99.90;;;;;;5048248;28;20037;-74
2022/04/04 08:50:39;;;;;;;18.23;15.65;;;5.60;99.90;;;;;;5030325;28;20037;-76
2022/04/04 08:53:05;;;;;;;21.35;17.45;;;5.60;99.90;;;;;;5045340;28;20048;-74
2022/04/04 08:55:31;;;;;;;21.27;18.20;;;5.50;99.90;;;;;;5046068;28;20037;-75
2022/04/04 08:57:57;;;;;;;20.58;13.77;;;5.50;99.90;;;;;;5044379;28;20096;-76
2022/04/04 09:00:24;;;;;;;19.77;15.40;;;5.60;99.90;;;;;;5049329;28;20551;-76
2022/04/04 09:03:04;;;;;;;18.67;13.73;;;5.60;99.90;;;;;;5032577;28;20037;-77
2022/04/04 09:06:00;;;;;;;13.80;12.05;;;5.60;99.90;;;;;;5033611;28;20045;-75
2022/04/04 09:08:28;;;;;;;15.63;10.82;;;5.70;99.90;;;;;;5031228;28;20057;-75
2022/04/04 09:10:56;;;;;;;15.45;11.23;;;5.80;99.90;;;;;;5044550;28;20074;-75
2022/04/04 09:13:24;;;;;;;15.43;10.40;;;5.80;99.90;;;;;;5046356;28;20045;-75
2022/04/04 09:16:03;;;;;;;11.15;8.50;;;5.80;99.90;;;;;;5045949;28;20089;-75
2022/04/04 09:18:41;;;;;;;11.45;7.93;;;5.80;99.90;;;;;;5047078;28;20037;-75
2022/04/04 09:21:19;;;;;;;9.60;5.45;;;5.80;99.90;;;;;;5046847;28;20049;-75
2022/04/04 09:23:45;;;;;;;12.88;6.35;;;5.70;99.90;;;;;;5031082;28;20063;-75
2022/04/04 09:26:34;;;;;;;7.47;5.03;;;5.70;99.90;;;;;;5051907;28;20055;-75
2022/04/04 09:29:22;;;;;;;8.45;5.72;;;5.60;99.90;;;;;;5030355;28;20044;-75
2022/04/04 09:31:53;;;;;;;6.97;4.70;;;5.70;99.90;;;;;;5038421;28;20048;-75
2022/04/04 09:34:19;;;;;;;8.63;5.50;;;5.70;99.90;;;;;;5042014;28;20123;-74
2022/04/04 09:36:48;;;;;;;6.47;5.13;;;5.70;99.90;;;;;;5044835;28;20059;-75
2022/04/04 09:39:15;;;;;;;8.07;6.00;;;5.80;99.90;;;;;;5047373;28;20098;-75
2022/04/04 09:41:41;;;;;;;7.70;4.90;;;5.80;99.90;;;;;;5044227;28;20145;-75
2022/04/04 09:44:08;;;;;;;8.40;4.88;;;5.80;99.90;;;;;;5045323;28;20524;-75
2022/04/04 09:46:36;;;;;;;5.88;4.68;;;5.70;99.90;;;;;;5047654;28;20043;-75
2022/04/04 09:49:14;;;;;;;6.82;4.75;;;5.80;99.90;;;;;;5044678;28;20048;-76
2022/04/04 09:51:42;;;;;;;6.18;5.20;;;5.80;99.90;;;;;;5025262;28;20041;-76
2022/04/04 09:54:11;;;;;;;8.57;5.65;;;5.80;99.90;;;;;;5045075;28;20037;-76
2022/04/04 09:56:37;;;;;;;7.95;5.10;;;5.80;99.90;;;;;;5043888;28;20044;-76
2022/04/04 09:59:03;;;;;;;5.82;4.97;;;5.80;99.90;;;;;;5046766;28;20531;-75
2022/04/04 10:01:31;;;;;;;6.38;5.28;;;5.80;99.90;;;;;;5046506;28;20070;-76
2022/04/04 10:03:58;;;;;;;5.22;4.15;;;5.90;99.90;;;;;;5045657;28;20041;-76
2022/04/04 10:06:29;;;;;;;5.15;4.60;;;5.90;99.90;;;;;;5045535;28;20060;-76
2022/04/04 10:08:57;;;;;;;6.15;4.78;;;5.90;99.90;;;;;;5043182;28;20613;-75
2022/04/04 10:11:24;;;;;;;6.50;5.05;;;6.00;99.90;;;;;;5042467;28;20485;-76
2022/04/04 10:13:54;;;;;;;5.72;4.00;;;6.00;99.90;;;;;;5047478;28;20049;-76
2022/04/04 10:16:23;;;;;;;4.70;4.20;;;6.00;99.90;;;;;;5031121;28;20040;-76
2022/04/04 10:18:50;;;;;;;5.15;4.40;;;6.10;99.90;;;;;;5027220;28;20107;-76
2022/04/04 10:21:17;;;;;;;5.85;4.13;;;6.00;99.90;;;;;;5048151;28;20037;-76
2022/04/04 10:23:44;;;;;;;5.32;4.68;;;6.10;99.90;;;;;;5046347;28;20060;-76
2022/04/04 10:26:14;;;;;;;5.10;4.43;;;6.00;99.90;;;;;;5040563;28;20044;-76
2022/04/04 10:28:41;;;;;;;7.45;4.30;;;6.00;99.90;;;;;;5043231;28;20052;-77
2022/04/04 10:31:18;;;;;;;7.38;4.68;;;6.10;99.90;;;;;;5042641;28;20098;-77
2022/04/04 10:33:46;;;;;;;6.25;4.43;;;6.00;99.90;;;;;;5041126;28;20029;-76
2022/04/04 10:36:22;;;;;;;11.55;5.28;;;6.00;99.90;;;;;;5045233;28;20132;-76
2022/04/04 10:38:56;;;;;;;5.18;4.55;;;6.10;99.90;;;;;;5046253;28;20041;-76
2022/04/04 10:41:26;;;;;;;9.90;4.88;;;6.10;99.90;;;;;;5045071;28;20037;-77
2022/04/04 10:43:53;;;;;;;6.25;5.00;;;6.20;99.90;;;;;;5043729;28;20381;-77
2022/04/04 10:46:21;;;;;;;7.40;5.30;;;6.20;99.90;;;;;;5045159;28;20033;-77
2022/04/04 10:48:47;;;;;;;7.85;5.13;;;6.30;99.90;;;;;;5043735;28;20119;-77
2022/04/04 10:51:19;;;;;;;7.75;5.75;;;6.20;99.90;;;;;;5007094;28;20045;-77
2022/04/04 10:53:47;;;;;;;6.50;5.13;;;6.20;99.90;;;;;;5027707;28;20037;-77
2022/04/04 10:56:22;;;;;;;7.57;5.57;;;6.30;99.90;;;;;;5045339;28;20037;-77
2022/04/04 10:58:50;;;;;;;8.82;6.00;;;6.30;99.90;;;;;;5043927;28;20056;-77
2022/04/04 11:01:21;;;;;;;8.98;5.25;;;6.30;99.90;;;;;;5043245;28;20043;-78
2022/04/04 11:03:53;;;;;;;6.35;5.70;;;6.30;99.90;;;;;;5044522;28;20100;-79
2022/04/04 11:09:22;;;;;;;6.93;5.43;;;6.40;99.90;;;;;;5044472;28;20053;-76
2022/04/04 11:11:58;;;;;;;7.22;4.35;;;6.40;99.90;;;;;;5045512;28;20087;-76
2022/04/04 11:14:27;;;;;;;6.07;5.47;;;6.50;99.90;;;;;;5042790;28;20037;-76
2022/04/04 11:17:18;;;;;;;8.93;5.30;;;6.50;99.90;;;;;;5063717;28;20037;-76
2022/04/04 11:19:48;;;;;;;6.32;4.35;;;6.60;99.90;;;;;;5029572;28;20569;-76
2022/04/04 11:22:16;;;;;;;7.13;5.43;;;6.70;99.90;;;;;;5046880;28;20033;-76
2022/04/04 11:24:43;;;;;;;8.02;5.20;;;6.70;99.90;;;;;;5041010;28;20033;-76
2022/04/04 11:27:10;;;;;;;9.55;5.80;;;6.70;99.90;;;;;;5043060;28;20125;-76
2022/04/04 11:29:39;;;;;;;5.40;4.85;;;6.70;99.90;;;;;;5026684;28;20044;-77
2022/04/04 11:32:04;;;;;;;7.85;5.95;;;6.70;99.90;;;;;;5044569;28;20045;-76
2022/04/04 11:34:34;;;;;;;8.75;5.25;;;6.60;99.90;;;;;;5041698;28;20048;-76
2022/04/04 11:37:00;;;;;;;7.43;5.57;;;6.70;99.90;;;;;;5044765;28;20041;-76
2022/04/04 11:39:25;;;;;;;7.03;4.97;;;6.70;99.90;;;;;;5041929;28;20095;-76
2022/04/04 11:41:52;;;;;;;7.32;4.95;;;6.80;99.90;;;;;;5042253;28;20036;-76
2022/04/04 11:44:26;;;;;;;7.78;4.75;;;6.80;99.90;;;;;;5042290;28;20038;-76
2022/04/04 11:47:06;;;;;;;6.60;4.57;;;6.80;99.90;;;;;;5070688;22;20040;-75
2022/04/04 11:49:34;;;;;;;6.07;4.50;;;6.90;99.90;;;;;;5048013;28;20054;-74
2022/04/04 11:52:04;;;;;;;8.13;4.30;;;6.90;99.90;;;;;;5067278;28;20082;-75
2022/04/04 11:54:43;;;;;;;5.75;3.58;;;6.90;99.90;;;;;;5068387;28;20089;-74
2022/04/04 11:57:10;;;;;;;6.43;4.25;;;7.00;99.90;;;;;;5055236;28;20055;-75
2022/04/04 11:59:40;;;;;;;5.32;3.92;;;6.90;99.90;;;;;;5042546;28;20159;-74
2022/04/04 12:02:09;;;;;;;6.80;4.15;;;7.00;99.90;;;;;;5047091;28;20032;-75
2022/04/04 12:04:39;;;;;;;5.25;3.90;;;7.00;99.90;;;;;;5045847;28;20039;-75
2022/04/04 12:07:06;;;;;;;6.50;3.90;;;7.00;99.90;;;;;;5049299;28;20041;-75
2022/04/04 12:09:34;;;;;;;4.97;3.15;;;7.00;99.90;;;;;;5046240;28;20047;-75
2022/04/04 12:12:10;;;;;;;3.40;3.10;;;7.10;99.90;;;;;;5047247;28;20045;-75
2022/04/04 12:14:38;;;;;;;6.95;4.25;;;7.20;99.90;;;;;;5049285;28;20037;-75
2022/04/04 12:17:05;;;;;;;4.57;3.40;;;7.20;99.90;;;;;;5030763;28;20044;-75
2022/04/04 12:19:30;;;;;;;6.40;4.40;;;7.20;99.90;;;;;;5063970;28;20530;-75
2022/04/04 12:21:57;;;;;;;5.22;4.22;;;7.20;99.90;;;;;;5048200;28;20068;-76
2022/04/04 12:27:13;;;;;;;6.38;4.00;;;7.30;99.90;;;;;;5046532;28;20037;-75
2022/04/04 12:29:41;;;;;;;8.43;6.60;;;7.40;99.90;;;;;;5045968;28;20045;-76
2022/04/04 12:32:18;;;;;;;9.40;6.22;;;7.30;99.90;;;;;;5050809;28;20131;-75
2022/04/04 12:34:55;;;;;;;6.35;4.57;;;7.30;99.90;;;;;;5045331;28;20064;-76
2022/04/04 12:37:35;;;;;;;6.15;4.25;;;7.30;99.90;;;;;;5050683;28;20051;-74
2022/04/04 12:40:17;;;;;;;5.25;4.38;;;7.40;99.90;;;;;;5046792;28;20527;-73
2022/04/04 12:42:43;;;;;;;4.07;3.40;;;7.40;99.90;;;;;;5034793;28;20033;-73
2022/04/04 12:45:13;;;;;;;5.97;3.85;;;7.50;99.90;;;;;;5037125;28;20041;-75
2022/04/04 12:48:07;;;;;;;5.18;3.97;;;7.40;99.90;;;;;;5030853;28;20059;-72
2022/04/04 12:50:37;;;;;;;3.83;3.22;;;7.50;99.90;;;;;;5037492;28;20040;-73
2022/04/04 12:53:05;;;;;;;4.68;3.38;;;7.50;99.90;;;;;;5048713;28;20037;-73
2022/04/04 12:55:33;;;;;;;2.78;2.58;;;7.50;99.90;;;;;;5050243;28;20040;-74
2022/04/04 12:58:23;;;;;;;2.53;2.28;;;7.60;99.90;;;;;;5001867;28;20036;-76